Time;durP1;ratioP1;P1;durP2;ratioP2;P2;SDS_P1;SDS_P2;PMS_P1;PMS_P2;Temp;Humidity;BMP_temperature;BMP_pressure;BME280_temperature;BME280_humidity;BME280_pressure;Samples;Min_cycle;Max_cycle;Signal;HPM_P1;HPM_P2
2021/07/09 00:01:02;;;;;;;15.98;14.30;;;;;;;;;;5144750;27;20067;-63
2021/07/09 00:03:28;;;;;;;15.60;13.63;;;;;;;;;;5137218;27;20105;-63
2021/07/09 00:05:53;;;;;;;14.27;13.07;;;;;;;;;;5122321;27;20042;-63
2021/07/09 00:08:18;;;;;;;18.23;16.38;;;;;;;;;;5141383;27;20022;-63
2021/07/09 00:10:43;;;;;;;15.48;14.07;;;;;;;;;;5120082;27;20019;-63
2021/07/09 00:13:09;;;;;;;17.85;14.50;;;;;;;;;;5150478;27;20031;-63
2021/07/09 00:15:35;;;;;;;15.77;14.27;;;;;;;;;;5153024;27;20022;-63
2021/07/09 00:18:00;;;;;;;14.93;13.70;;;;;;;;;;5148135;27;20625;-63
2021/07/09 00:20:25;;;;;;;20.52;17.67;;;;;;;;;;5150426;27;20027;-63
2021/07/09 00:22:50;;;;;;;18.45;16.27;;;;;;;;;;5132204;27;20061;-63
2021/07/09 00:25:16;;;;;;;21.33;17.90;;;;;;;;;;5136579;27;20155;-63
2021/07/09 00:27:41;;;;;;;18.95;17.15;;;;;;;;;;5132050;27;20058;-63
2021/07/09 00:30:07;;;;;;;19.35;17.38;;;;;;;;;;5148109;27;20102;-63
2021/07/09 00:32:32;;;;;;;20.65;18.55;;;;;;;;;;5151428;27;20014;-63
2021/07/09 00:34:57;;;;;;;19.13;17.23;;;;;;;;;;5147478;27;20443;-62
2021/07/09 00:37:22;;;;;;;25.40;19.10;;;;;;;;;;5129080;27;20069;-63
2021/07/09 00:39:48;;;;;;;19.38;17.55;;;;;;;;;;5142532;27;20019;-63
2021/07/09 00:42:13;;;;;;;21.65;19.40;;;;;;;;;;5127977;27;20014;-63
2021/07/09 00:44:38;;;;;;;16.45;14.80;;;;;;;;;;5127855;27;20062;-63
2021/07/09 00:47:04;;;;;;;17.33;15.75;;;;;;;;;;5145755;27;20034;-63
2021/07/09 00:49:29;;;;;;;16.02;14.50;;;;;;;;;;5148789;27;20063;-63
2021/07/09 00:51:54;;;;;;;15.80;14.27;;;;;;;;;;5154103;27;20050;-64
2021/07/09 00:54:19;;;;;;;16.05;14.55;;;;;;;;;;5134056;27;20033;-63
2021/07/09 00:56:46;;;;;;;14.65;13.10;;;;;;;;;;5151085;27;20025;-63
2021/07/09 00:59:13;;;;;;;15.05;13.52;;;;;;;;;;5127171;27;20484;-63
2021/07/09 01:01:38;;;;;;;13.95;12.48;;;;;;;;;;5150321;27;20046;-63
2021/07/09 01:04:03;;;;;;;13.57;12.30;;;;;;;;;;5147498;27;20453;-64
2021/07/09 01:06:28;;;;;;;14.52;13.35;;;;;;;;;;5154427;27;20471;-63
2021/07/09 01:08:54;;;;;;;14.15;12.68;;;;;;;;;;5150133;27;20453;-63
2021/07/09 01:11:24;;;;;;;15.18;13.73;;;;;;;;;;5150875;27;20019;-63
2021/07/09 01:13:50;;;;;;;14.82;13.43;;;;;;;;;;5139584;27;20050;-63
2021/07/09 01:16:15;;;;;;;12.57;11.50;;;;;;;;;;5141119;27;20030;-64
2021/07/09 01:18:40;;;;;;;13.27;12.18;;;;;;;;;;5149409;27;20022;-64
2021/07/09 01:21:09;;;;;;;13.82;12.50;;;;;;;;;;5150181;27;20023;-64
2021/07/09 01:23:35;;;;;;;13.65;12.32;;;;;;;;;;5128465;27;20097;-64
2021/07/09 01:26:01;;;;;;;12.57;11.48;;;;;;;;;;5152682;27;20097;-64
2021/07/09 01:28:26;;;;;;;12.60;11.43;;;;;;;;;;5149970;27;20139;-64
2021/07/09 01:30:51;;;;;;;12.73;11.63;;;;;;;;;;5146512;27;20034;-64
2021/07/09 01:33:16;;;;;;;11.65;10.52;;;;;;;;;;5152399;27;20034;-64
2021/07/09 01:35:43;;;;;;;10.50;9.70;;;;;;;;;;5152963;27;20019;-64
2021/07/09 01:38:08;;;;;;;12.30;11.27;;;;;;;;;;5143998;27;20015;-64
2021/07/09 01:40:34;;;;;;;10.07;9.32;;;;;;;;;;5146602;27;20095;-64
2021/07/09 01:43:01;;;;;;;10.68;9.75;;;;;;;;;;5151181;27;20029;-64
2021/07/09 01:45:27;;;;;;;10.20;9.20;;;;;;;;;;5151526;27;20067;-64
2021/07/09 01:47:53;;;;;;;8.32;7.72;;;;;;;;;;5147514;27;20019;-64
2021/07/09 01:50:18;;;;;;;10.82;9.73;;;;;;;;;;5145861;27;20105;-64
2021/07/09 01:52:45;;;;;;;8.95;8.35;;;;;;;;;;5132742;27;20508;-64
2021/07/09 01:55:11;;;;;;;9.70;8.90;;;;;;;;;;5144875;27;20460;-64
2021/07/09 01:57:36;;;;;;;9.48;8.52;;;;;;;;;;5145982;27;20011;-64
2021/07/09 02:00:05;;;;;;;8.52;7.75;;;;;;;;;;5147197;27;20003;-64
2021/07/09 02:02:30;;;;;;;10.68;9.77;;;;;;;;;;5153299;27;20046;-64
2021/07/09 02:04:56;;;;;;;7.28;6.68;;;;;;;;;;5152376;27;20462;-64
2021/07/09 02:07:23;;;;;;;7.80;7.28;;;;;;;;;;5151069;27;20436;-64
2021/07/09 02:09:49;;;;;;;9.30;8.50;;;;;;;;;;5141330;27;20477;-64
2021/07/09 02:12:15;;;;;;;7.68;6.95;;;;;;;;;;5132750;28;20052;-64
2021/07/09 02:14:40;;;;;;;7.38;6.65;;;;;;;;;;5149835;27;20430;-64
2021/07/09 02:17:07;;;;;;;6.75;6.25;;;;;;;;;;5130547;27;20064;-64
2021/07/09 02:19:32;;;;;;;7.45;6.75;;;;;;;;;;5147799;27;20093;-64
2021/07/09 02:22:00;;;;;;;6.93;6.30;;;;;;;;;;5143076;27;20098;-64
2021/07/09 02:24:25;;;;;;;8.70;8.00;;;;;;;;;;5152272;27;20023;-64
2021/07/09 02:26:50;;;;;;;8.27;7.43;;;;;;;;;;5149888;27;20037;-64
2021/07/09 02:29:16;;;;;;;6.85;6.25;;;;;;;;;;5148327;27;20075;-64
2021/07/09 02:31:41;;;;;;;5.72;5.13;;;;;;;;;;5141291;27;20019;-64
2021/07/09 02:34:06;;;;;;;5.60;5.10;;;;;;;;;;5145652;27;20020;-64
2021/07/09 02:36:31;;;;;;;5.53;5.13;;;;;;;;;;5151066;27;20484;-64
2021/07/09 02:38:56;;;;;;;5.75;5.35;;;;;;;;;;5149274;27;20026;-64
2021/07/09 02:41:22;;;;;;;5.57;5.25;;;;;;;;;;5150604;27;20018;-64
2021/07/09 02:43:47;;;;;;;7.57;6.88;;;;;;;;;;5129530;27;20037;-64
2021/07/09 02:46:12;;;;;;;5.78;5.38;;;;;;;;;;5151810;27;20072;-64
2021/07/09 02:48:37;;;;;;;7.43;6.93;;;;;;;;;;5147969;27;20457;-64
2021/07/09 02:51:03;;;;;;;9.40;8.57;;;;;;;;;;5148996;27;20023;-64
2021/07/09 02:53:28;;;;;;;5.70;5.20;;;;;;;;;;5150163;27;20487;-64
2021/07/09 02:55:55;;;;;;;6.80;6.30;;;;;;;;;;5149966;27;20091;-64
2021/07/09 02:58:20;;;;;;;7.72;7.18;;;;;;;;;;5145698;27;20011;-63
2021/07/09 03:00:46;;;;;;;7.40;6.90;;;;;;;;;;5137869;27;20025;-64
2021/07/09 03:03:11;;;;;;;7.45;6.85;;;;;;;;;;5139831;27;20023;-63
2021/07/09 03:05:36;;;;;;;10.07;9.27;;;;;;;;;;5151709;27;20126;-64
2021/07/09 03:08:01;;;;;;;8.13;7.43;;;;;;;;;;5151412;27;20125;-63
2021/07/09 03:10:27;;;;;;;7.97;7.28;;;;;;;;;;5153217;27;20212;-63
2021/07/09 03:12:52;;;;;;;7.88;7.38;;;;;;;;;;5143365;27;20023;-64
2021/07/09 03:15:17;;;;;;;7.75;6.88;;;;;;;;;;5121802;27;20027;-64
2021/07/09 03:17:42;;;;;;;7.47;6.88;;;;;;;;;;5151300;27;20071;-63
2021/07/09 03:20:09;;;;;;;9.07;8.38;;;;;;;;;;5144269;27;20706;-63
2021/07/09 03:22:34;;;;;;;8.10;7.50;;;;;;;;;;5154027;27;20362;-63
2021/07/09 03:25:00;;;;;;;9.57;8.65;;;;;;;;;;5155251;27;20126;-63
2021/07/09 03:27:25;;;;;;;8.15;7.43;;;;;;;;;;5136891;27;20050;-63
2021/07/09 03:29:50;;;;;;;8.98;8.15;;;;;;;;;;5143208;27;20068;-63
2021/07/09 03:32:15;;;;;;;8.90;8.30;;;;;;;;;;5137745;27;20070;-63
2021/07/09 03:34:40;;;;;;;8.60;8.00;;;;;;;;;;5136988;27;20043;-63
2021/07/09 03:37:06;;;;;;;7.97;7.45;;;;;;;;;;5136071;27;20026;-63
2021/07/09 03:39:31;;;;;;;8.93;8.25;;;;;;;;;;5148940;27;20019;-63
2021/07/09 03:41:56;;;;;;;9.18;8.57;;;;;;;;;;5125882;27;20148;-64
2021/07/09 03:44:21;;;;;;;8.73;8.13;;;;;;;;;;5150209;27;20107;-63
2021/07/09 03:46:46;;;;;;;9.23;8.52;;;;;;;;;;5152842;27;20042;-63
2021/07/09 03:49:12;;;;;;;10.07;9.18;;;;;;;;;;5149207;27;20098;-63
2021/07/09 03:51:38;;;;;;;10.70;9.85;;;;;;;;;;5154009;27;20085;-63
2021/07/09 03:54:03;;;;;;;10.40;9.60;;;;;;;;;;5135996;27;20025;-63
2021/07/09 03:56:29;;;;;;;10.73;9.93;;;;;;;;;;5154390;27;20011;-64
2021/07/09 03:58:54;;;;;;;11.15;10.30;;;;;;;;;;5130625;27;20276;-63
2021/07/09 04:01:20;;;;;;;10.18;9.38;;;;;;;;;;5135512;27;20019;-63
2021/07/09 04:03:45;;;;;;;12.93;11.80;;;;;;;;;;5151014;27;20093;-63
2021/07/09 04:06:11;;;;;;;12.23;11.13;;;;;;;;;;5153663;27;20050;-64
2021/07/09 04:08:36;;;;;;;15.73;13.35;;;;;;;;;;5151642;27;20029;-64
2021/07/09 04:11:01;;;;;;;12.05;11.13;;;;;;;;;;5152106;27;20400;-64
2021/07/09 04:13:26;;;;;;;12.23;11.23;;;;;;;;;;5152452;27;20473;-64
2021/07/09 04:15:51;;;;;;;12.20;11.18;;;;;;;;;;5148531;27;20549;-64
2021/07/09 04:18:17;;;;;;;10.93;10.02;;;;;;;;;;5150653;27;20504;-64
2021/07/09 04:20:42;;;;;;;11.15;10.05;;;;;;;;;;5134688;27;20102;-64
2021/07/09 04:23:08;;;;;;;11.25;10.18;;;;;;;;;;5117698;27;20357;-64
2021/07/09 04:25:33;;;;;;;10.60;9.63;;;;;;;;;;5142464;27;20023;-64
2021/07/09 04:27:59;;;;;;;9.85;9.05;;;;;;;;;;5128918;27;20026;-64
2021/07/09 04:30:24;;;;;;;9.27;8.52;;;;;;;;;;5133591;27;20473;-63
2021/07/09 04:32:49;;;;;;;9.02;8.25;;;;;;;;;;5131666;27;20031;-64
2021/07/09 04:35:14;;;;;;;9.80;8.93;;;;;;;;;;5140474;27;20027;-63
2021/07/09 04:37:40;;;;;;;10.73;9.82;;;;;;;;;;5147076;27;20237;-63
2021/07/09 04:40:06;;;;;;;11.00;10.02;;;;;;;;;;5152419;27;20528;-63
2021/07/09 04:42:31;;;;;;;10.95;10.05;;;;;;;;;;5151604;27;20094;-63
2021/07/09 04:44:57;;;;;;;11.70;10.70;;;;;;;;;;5143108;27;20023;-63
2021/07/09 04:47:22;;;;;;;9.32;8.55;;;;;;;;;;5149556;27;20067;-63
2021/07/09 04:49:47;;;;;;;10.40;9.27;;;;;;;;;;5149402;27;20154;-63
2021/07/09 04:52:12;;;;;;;7.93;7.32;;;;;;;;;;5148865;27;20101;-63
2021/07/09 04:54:38;;;;;;;7.13;6.60;;;;;;;;;;5143716;27;20099;-63
2021/07/09 04:57:03;;;;;;;6.78;6.18;;;;;;;;;;5147196;27;20018;-63
2021/07/09 04:59:28;;;;;;;6.90;6.40;;;;;;;;;;5142311;27;20015;-63
2021/07/09 05:01:54;;;;;;;6.93;6.32;;;;;;;;;;5144214;27;20018;-63
2021/07/09 05:04:19;;;;;;;7.85;7.25;;;;;;;;;;5144442;27;20043;-64
2021/07/09 05:06:44;;;;;;;8.55;7.75;;;;;;;;;;5119415;27;20019;-63
2021/07/09 05:09:09;;;;;;;8.70;7.80;;;;;;;;;;5130414;27;20030;-63
2021/07/09 05:11:35;;;;;;;7.53;6.93;;;;;;;;;;5139784;27;20548;-64
2021/07/09 05:14:01;;;;;;;7.63;7.03;;;;;;;;;;5148868;27;20017;-64
2021/07/09 05:16:26;;;;;;;7.65;7.05;;;;;;;;;;5142211;27;20026;-64
2021/07/09 05:18:52;;;;;;;7.63;7.03;;;;;;;;;;5122422;27;20039;-63
2021/07/09 05:21:18;;;;;;;10.93;10.02;;;;;;;;;;5130006;27;20466;-64
2021/07/09 05:23:43;;;;;;;7.53;6.93;;;;;;;;;;5152684;27;20029;-63
2021/07/09 05:26:08;;;;;;;8.35;7.65;;;;;;;;;;5132251;27;20019;-65
2021/07/09 05:28:34;;;;;;;7.63;7.05;;;;;;;;;;5143110;27;20109;-64
2021/07/09 05:30:59;;;;;;;7.53;7.03;;;;;;;;;;5144183;27;20461;-65
2021/07/09 05:33:24;;;;;;;9.07;8.27;;;;;;;;;;5143271;27;20076;-64
2021/07/09 05:35:49;;;;;;;7.13;6.40;;;;;;;;;;5143974;27;20080;-64
2021/07/09 05:38:15;;;;;;;7.72;7.13;;;;;;;;;;5141248;27;20030;-64
2021/07/09 05:40:40;;;;;;;6.90;6.28;;;;;;;;;;5147491;27;20083;-64
2021/07/09 05:43:05;;;;;;;7.28;6.78;;;;;;;;;;5144549;27;20019;-64
2021/07/09 05:45:31;;;;;;;7.00;6.50;;;;;;;;;;5143414;27;20022;-63
2021/07/09 05:47:56;;;;;;;7.25;6.60;;;;;;;;;;5141194;27;20266;-63
2021/07/09 05:50:22;;;;;;;6.80;6.30;;;;;;;;;;5142315;27;20047;-63
2021/07/09 05:52:48;;;;;;;8.75;7.85;;;;;;;;;;5146154;27;20357;-63
2021/07/09 05:55:13;;;;;;;7.97;7.38;;;;;;;;;;5149170;27;20030;-64
2021/07/09 05:57:38;;;;;;;6.38;5.88;;;;;;;;;;5141790;27;20023;-64
2021/07/09 06:00:05;;;;;;;6.72;6.22;;;;;;;;;;5142796;27;20105;-64
2021/07/09 06:02:30;;;;;;;7.53;6.93;;;;;;;;;;5142874;27;20011;-64
2021/07/09 06:04:55;;;;;;;6.18;5.68;;;;;;;;;;5140715;27;20114;-64
2021/07/09 06:07:20;;;;;;;6.65;6.18;;;;;;;;;;5141900;27;21366;-64
2021/07/09 06:09:46;;;;;;;5.35;5.05;;;;;;;;;;5145774;27;20053;-64
2021/07/09 06:12:11;;;;;;;6.50;6.00;;;;;;;;;;5146283;27;20064;-64
2021/07/09 06:14:36;;;;;;;6.25;5.85;;;;;;;;;;5135296;27;20038;-64
2021/07/09 06:17:02;;;;;;;7.30;6.68;;;;;;;;;;5143719;27;20033;-65
2021/07/09 06:19:27;;;;;;;6.60;6.10;;;;;;;;;;5120904;27;20422;-64
2021/07/09 06:21:52;;;;;;;6.97;6.28;;;;;;;;;;5143765;27;20058;-64
2021/07/09 06:24:17;;;;;;;7.28;6.57;;;;;;;;;;5143658;27;20019;-64
2021/07/09 06:26:43;;;;;;;8.57;7.88;;;;;;;;;;5143790;27;20019;-64
2021/07/09 06:29:09;;;;;;;7.43;6.82;;;;;;;;;;5141060;27;20075;-64
2021/07/09 06:31:34;;;;;;;7.00;6.30;;;;;;;;;;5144330;27;20149;-64
2021/07/09 06:33:59;;;;;;;7.32;6.68;;;;;;;;;;5143644;27;20019;-63
2021/07/09 06:36:24;;;;;;;6.15;5.65;;;;;;;;;;5124959;27;20075;-64
2021/07/09 06:38:50;;;;;;;6.38;5.88;;;;;;;;;;5145401;27;20023;-64
2021/07/09 06:41:15;;;;;;;6.30;5.80;;;;;;;;;;5147493;27;20741;-64
2021/07/09 06:43:40;;;;;;;6.40;5.90;;;;;;;;;;5147909;27;20025;-64
2021/07/09 06:46:06;;;;;;;5.45;5.05;;;;;;;;;;5145866;27;20026;-64
2021/07/09 06:48:31;;;;;;;5.35;4.95;;;;;;;;;;5145007;27;20058;-64
2021/07/09 06:50:56;;;;;;;5.55;5.15;;;;;;;;;;5148558;27;20075;-64
2021/07/09 06:53:21;;;;;;;6.78;6.28;;;;;;;;;;5148057;27;20044;-64
2021/07/09 06:55:46;;;;;;;7.75;7.05;;;;;;;;;;5126497;27;20023;-64
2021/07/09 06:58:12;;;;;;;7.65;6.95;;;;;;;;;;5142543;27;20014;-65
2021/07/09 07:00:38;;;;;;;6.47;5.97;;;;;;;;;;5146300;27;20029;-64
2021/07/09 07:03:03;;;;;;;8.52;7.50;;;;;;;;;;5145478;27;21305;-64
2021/07/09 07:05:29;;;;;;;7.75;7.05;;;;;;;;;;5144174;27;20047;-64
2021/07/09 07:07:54;;;;;;;7.03;6.43;;;;;;;;;;5142605;27;20117;-64
2021/07/09 07:10:19;;;;;;;7.93;7.22;;;;;;;;;;5147479;27;20052;-64
2021/07/09 07:12:46;;;;;;;6.88;6.28;;;;;;;;;;5149216;27;20497;-64
2021/07/09 07:15:11;;;;;;;4.80;4.40;;;;;;;;;;5148776;27;20269;-65
2021/07/09 07:17:37;;;;;;;5.63;5.22;;;;;;;;;;5151610;27;20015;-64
2021/07/09 07:20:03;;;;;;;4.40;4.10;;;;;;;;;;5152089;27;20007;-65
2021/07/09 07:22:28;;;;;;;3.70;3.50;;;;;;;;;;5147776;27;20035;-64
2021/07/09 07:24:53;;;;;;;4.03;3.83;;;;;;;;;;5141435;27;20093;-64
2021/07/09 07:27:24;;;;;;;4.35;4.05;;;;;;;;;;5148526;27;20010;-65
2021/07/09 07:29:50;;;;;;;4.03;3.67;;;;;;;;;;5148385;27;20469;-65
2021/07/09 07:32:16;;;;;;;3.95;3.10;;;;;;;;;;5151856;27;20022;-64
2021/07/09 07:34:41;;;;;;;2.92;2.75;;;;;;;;;;5134899;27;20029;-65
2021/07/09 07:37:07;;;;;;;3.15;2.95;;;;;;;;;;5154182;27;20080;-65
2021/07/09 07:39:32;;;;;;;2.80;2.70;;;;;;;;;;5150538;27;20019;-65
2021/07/09 07:41:57;;;;;;;3.30;3.00;;;;;;;;;;5153681;27;20015;-65
2021/07/09 07:44:26;;;;;;;2.80;2.70;;;;;;;;;;5138665;27;20098;-65
2021/07/09 07:46:52;;;;;;;2.40;2.25;;;;;;;;;;5145683;27;20011;-65
2021/07/09 07:49:17;;;;;;;2.10;1.95;;;;;;;;;;5130316;27;20026;-65
2021/07/09 07:51:42;;;;;;;1.45;1.20;;;;;;;;;;5133195;27;20026;-65
2021/07/09 07:54:07;;;;;;;2.47;2.28;;;;;;;;;;5144876;27;20022;-65
2021/07/09 07:56:33;;;;;;;1.92;1.83;;;;;;;;;;5138740;27;20039;-65
2021/07/09 07:58:58;;;;;;;1.93;1.90;;;;;;;;;;5147369;27;20350;-65
2021/07/09 08:01:25;;;;;;;2.50;2.40;;;;;;;;;;5153308;27;20734;-65
2021/07/09 08:03:50;;;;;;;2.90;2.80;;;;;;;;;;5152427;27;20473;-65
2021/07/09 08:06:16;;;;;;;3.05;2.95;;;;;;;;;;5132378;27;20059;-65
2021/07/09 08:08:43;;;;;;;3.60;3.40;;;;;;;;;;5132963;27;20027;-65
2021/07/09 08:11:08;;;;;;;3.53;3.33;;;;;;;;;;5140938;27;20311;-65
2021/07/09 08:13:33;;;;;;;3.33;3.13;;;;;;;;;;5153218;27;20051;-65
2021/07/09 08:15:58;;;;;;;4.00;3.60;;;;;;;;;;5139443;27;20047;-65
2021/07/09 08:18:23;;;;;;;4.15;3.85;;;;;;;;;;5149802;27;20465;-65
2021/07/09 08:20:49;;;;;;;3.10;2.88;;;;;;;;;;5153190;27;20022;-65
2021/07/09 08:23:14;;;;;;;2.67;2.58;;;;;;;;;;5152542;27;20075;-65
2021/07/09 08:25:39;;;;;;;3.55;3.35;;;;;;;;;;5134794;27;20469;-65
2021/07/09 08:28:05;;;;;;;2.78;2.58;;;;;;;;;;5151203;27;20487;-66
2021/07/09 08:30:30;;;;;;;2.78;2.67;;;;;;;;;;5124756;27;20034;-65
2021/07/09 08:32:55;;;;;;;2.30;2.20;;;;;;;;;;5143536;27;20026;-65
2021/07/09 08:35:20;;;;;;;2.88;2.67;;;;;;;;;;5154497;27;20056;-65
2021/07/09 08:37:46;;;;;;;2.47;2.28;;;;;;;;;;5151316;27;20011;-65
2021/07/09 08:40:11;;;;;;;3.22;2.85;;;;;;;;;;5154135;27;20011;-65
2021/07/09 08:42:37;;;;;;;3.35;3.05;;;;;;;;;;5151192;27;20071;-65
2021/07/09 08:45:03;;;;;;;3.28;2.63;;;;;;;;;;5154147;27;20030;-65
2021/07/09 08:47:31;;;;;;;2.40;2.25;;;;;;;;;;5148999;27;20113;-65
2021/07/09 08:49:58;;;;;;;1.60;1.50;;;;;;;;;;5141083;27;20046;-65
2021/07/09 08:52:23;;;;;;;1.38;1.27;;;;;;;;;;5131166;27;20042;-65
2021/07/09 08:54:48;;;;;;;0.70;0.70;;;;;;;;;;5134560;27;20058;-65
2021/07/09 08:57:16;;;;;;;1.23;0.50;;;;;;;;;;5151145;27;20023;-66
2021/07/09 08:59:41;;;;;;;0.63;0.63;;;;;;;;;;5145301;27;20272;-65
2021/07/09 09:02:07;;;;;;;0.40;0.30;;;;;;;;;;5135032;27;20091;-65
2021/07/09 09:04:36;;;;;;;0.95;0.50;;;;;;;;;;5128227;27;20684;-66
2021/07/09 09:07:01;;;;;;;0.65;0.10;;;;;;;;;;5125989;27;20047;-68
2021/07/09 09:09:27;;;;;;;0.30;0.20;;;;;;;;;;5125355;27;20049;-70
2021/07/09 09:12:01;;;;;;;0.15;0.15;;;;;;;;;;5130952;27;20038;-66
2021/07/09 09:14:27;;;;;;;0.73;0.20;;;;;;;;;;5134969;27;20036;-65
2021/07/09 09:16:52;;;;;;;0.20;0.15;;;;;;;;;;5145484;27;20019;-65
2021/07/09 09:19:20;;;;;;;0.20;0.10;;;;;;;;;;5142489;27;20063;-65
2021/07/09 09:22:06;;;;;;;0.20;0.10;;;;;;;;;;5145880;27;20015;-64
2021/07/09 09:24:31;;;;;;;;;;;;;;;;;;5145734;27;20015;-65
2021/07/09 09:26:57;;;;;;;0.10;0.10;;;;;;;;;;5145523;27;19922;-66
2021/07/09 09:29:25;;;;;;;0.10;0.10;;;;;;;;;;5140238;27;20019;-65
2021/07/09 09:32:09;;;;;;;1.42;0.25;;;;;;;;;;5129906;27;20071;-65
2021/07/09 09:34:34;;;;;;;0.95;0.20;;;;;;;;;;5147267;27;20018;-65
2021/07/09 09:37:00;;;;;;;0.30;0.30;;;;;;;;;;5122544;27;20019;-65
2021/07/09 09:39:25;;;;;;;1.00;0.57;;;;;;;;;;5117448;27;20022;-64
2021/07/09 09:42:09;;;;;;;1.23;1.10;;;;;;;;;;5144274;27;20023;-64
2021/07/09 09:44:34;;;;;;;1.83;1.70;;;;;;;;;;5148368;27;20358;-64
2021/07/09 09:47:13;;;;;;;1.58;1.48;;;;;;;;;;5150560;27;20101;-64
2021/07/09 09:49:38;;;;;;;1.83;1.73;;;;;;;;;;5140120;27;20022;-64
2021/07/09 09:52:03;;;;;;;1.57;1.47;;;;;;;;;;5152050;27;20015;-65
2021/07/09 09:54:35;;;;;;;1.42;1.20;;;;;;;;;;5153470;27;20252;-66
2021/07/09 09:57:00;;;;;;;1.17;0.90;;;;;;;;;;5132188;27;20014;-66
2021/07/09 09:59:26;;;;;;;2.05;0.80;;;;;;;;;;5128815;27;20030;-66
2021/07/09 10:02:05;;;;;;;1.63;1.25;;;;;;;;;;5145172;27;20015;-67
2021/07/09 10:04:31;;;;;;;1.23;1.13;;;;;;;;;;5128488;27;20047;-67
2021/07/09 10:06:57;;;;;;;0.50;0.43;;;;;;;;;;5153123;27;20023;-67
2021/07/09 10:09:22;;;;;;;0.40;0.30;;;;;;;;;;5149040;27;20038;-67
2021/07/09 10:11:48;;;;;;;1.10;0.30;;;;;;;;;;5150414;27;20098;-65
2021/07/09 10:14:14;;;;;;;2.15;0.30;;;;;;;;;;5138841;27;20022;-64
2021/07/09 10:16:40;;;;;;;0.73;0.15;;;;;;;;;;5137966;27;20412;-64
2021/07/09 10:19:07;;;;;;;1.08;0.20;;;;;;;;;;5134486;27;20011;-69
2021/07/09 10:21:32;;;;;;;0.28;0.10;;;;;;;;;;5136101;27;20030;-65
2021/07/09 10:23:58;;;;;;;0.20;0.20;;;;;;;;;;5155594;27;20389;-66
2021/07/09 10:26:23;;;;;;;0.60;0.22;;;;;;;;;;5155734;27;20656;-63
2021/07/09 10:29:07;;;;;;;0.50;0.50;;;;;;;;;;5151915;27;20388;-62
2021/07/09 10:31:40;;;;;;;1.25;0.65;;;;;;;;;;5132216;27;20102;-62
2021/07/09 10:34:24;;;;;;;0.95;0.95;;;;;;;;;;5156544;27;20019;-62
2021/07/09 10:36:50;;;;;;;0.70;0.60;;;;;;;;;;5138101;27;20083;-62
2021/07/09 10:39:16;;;;;;;0.93;0.93;;;;;;;;;;5149624;27;20007;-61
2021/07/09 10:41:41;;;;;;;1.50;1.40;;;;;;;;;;5154548;27;20022;-62
2021/07/09 10:44:09;;;;;;;1.13;1.00;;;;;;;;;;5150782;27;20419;-62
2021/07/09 10:46:34;;;;;;;0.93;0.93;;;;;;;;;;5137808;27;20015;-61
2021/07/09 10:48:59;;;;;;;0.98;0.40;;;;;;;;;;5148948;27;20010;-61
2021/07/09 10:51:44;;;;;;;0.77;0.30;;;;;;;;;;5137650;27;20019;-61
2021/07/09 10:54:09;;;;;;;;;;;;;;;;;;5131007;27;20356;-62
2021/07/09 10:56:35;;;;;;;0.98;0.30;;;;;;;;;;5122881;27;19993;-62
2021/07/09 10:59:00;;;;;;;1.75;0.32;;;;;;;;;;5134319;27;20421;-62
2021/07/09 11:01:34;;;;;;;0.55;0.55;;;;;;;;;;5123242;27;20564;-62
2021/07/09 11:04:05;;;;;;;1.93;1.83;;;;;;;;;;5138207;27;20018;-63
2021/07/09 11:06:31;;;;;;;3.22;3.08;;;;;;;;;;5114831;28;20732;-62
2021/07/09 11:08:56;;;;;;;2.63;2.50;;;;;;;;;;5108749;28;20026;-62
2021/07/09 11:11:42;;;;;;;1.05;1.05;;;;;;;;;;5114293;28;20272;-62
2021/07/09 11:14:08;;;;;;;0.20;0.20;;;;;;;;;;5114340;28;20019;-62
2021/07/09 11:16:38;;;;;;;0.20;0.20;;;;;;;;;;5114778;28;20051;-62
2021/07/09 11:19:04;;;;;;;0.20;0.20;;;;;;;;;;5109614;28;20474;-62
2021/07/09 11:21:33;;;;;;;0.20;0.10;;;;;;;;;;5109140;28;20509;-62
2021/07/09 11:24:03;;;;;;;0.10;0.10;;;;;;;;;;5113460;28;20015;-62
2021/07/09 11:26:29;;;;;;;0.00;0.00;;;;;;;;;;5112689;28;20023;-62
2021/07/09 11:28:57;;;;;;;0.10;0.00;;;;;;;;;;5111243;28;20417;-62
2021/07/09 11:31:36;;;;;;;0.00;0.00;;;;;;;;;;5114498;28;20023;-62
2021/07/09 11:34:03;;;;;;;0.85;0.10;;;;;;;;;;5112186;28;20067;-62
2021/07/09 11:36:28;;;;;;;2.60;0.20;;;;;;;;;;5112704;28;20019;-62
2021/07/09 11:39:06;;;;;;;0.28;0.10;;;;;;;;;;5108969;28;20030;-62
2021/07/09 11:41:31;;;;;;;0.40;0.20;;;;;;;;;;5114072;28;20459;-62
2021/07/09 11:43:56;;;;;;;0.08;0.05;;;;;;;;;;5113737;28;20028;-62
2021/07/09 11:46:21;;;;;;;0.40;0.00;;;;;;;;;;5114081;28;20024;-62
2021/07/09 11:48:47;;;;;;;0.50;0.00;;;;;;;;;;5111082;28;20027;-63
2021/07/09 11:51:12;;;;;;;0.05;0.05;;;;;;;;;;5114004;28;20057;-62
2021/07/09 11:53:37;;;;;;;1.00;0.10;;;;;;;;;;5113156;28;20454;-62
2021/07/09 11:56:15;;;;;;;0.95;0.10;;;;;;;;;;5112532;28;20117;-62
2021/07/09 11:58:40;;;;;;;0.03;0.00;;;;;;;;;;5108810;27;20023;-62
2021/07/09 12:01:17;;;;;;;0.65;0.08;;;;;;;;;;5113481;28;20024;-62
2021/07/09 12:03:48;;;;;;;0.60;0.20;;;;;;;;;;5110575;28;20035;-62
2021/07/09 12:06:20;;;;;;;0.22;0.20;;;;;;;;;;5144359;27;20489;-61
2021/07/09 12:08:56;;;;;;;0.35;0.00;;;;;;;;;;5130072;27;20175;-65
2021/07/09 12:11:21;;;;;;;0.55;0.20;;;;;;;;;;5154931;27;20022;-65
2021/07/09 12:14:05;;;;;;;0.90;0.20;;;;;;;;;;5154690;27;20385;-65
2021/07/09 12:16:31;;;;;;;0.10;0.10;;;;;;;;;;5155325;27;20040;-65
2021/07/09 12:18:56;;;;;;;0.28;0.10;;;;;;;;;;5151845;27;20031;-65
2021/07/09 12:21:21;;;;;;;0.68;0.20;;;;;;;;;;5133968;27;20018;-65
2021/07/09 12:23:47;;;;;;;0.70;0.10;;;;;;;;;;5143830;27;20521;-64
2021/07/09 12:26:12;;;;;;;0.50;0.10;;;;;;;;;;5124510;27;20389;-65
2021/07/09 12:28:37;;;;;;;1.75;0.20;;;;;;;;;;5138983;27;20027;-65
2021/07/09 12:31:04;;;;;;;0.20;0.10;;;;;;;;;;5137926;27;20110;-64
2021/07/09 12:33:35;;;;;;;0.77;0.10;;;;;;;;;;5155388;27;20063;-64
2021/07/09 12:36:01;;;;;;;0.20;0.10;;;;;;;;;;5134081;27;20072;-64
2021/07/09 12:38:27;;;;;;;0.10;0.10;;;;;;;;;;5145114;27;20015;-64
2021/07/09 12:40:53;;;;;;;0.10;0.10;;;;;;;;;;5140800;27;20018;-65
2021/07/09 12:43:25;;;;;;;0.10;0.08;;;;;;;;;;5131843;27;20015;-64
2021/07/09 12:45:58;;;;;;;0.20;0.10;;;;;;;;;;5136131;27;20400;-64
2021/07/09 12:48:29;;;;;;;2.55;0.10;;;;;;;;;;5131461;27;20019;-64
2021/07/09 12:50:55;;;;;;;0.00;0.00;;;;;;;;;;5154633;27;20492;-64
2021/07/09 12:53:21;;;;;;;0.95;0.15;;;;;;;;;;5154665;27;20097;-65
2021/07/09 12:55:47;;;;;;;0.10;0.10;;;;;;;;;;5154142;27;20364;-64
2021/07/09 12:58:25;;;;;;;0.00;0.00;;;;;;;;;;5148715;27;20046;-64
2021/07/09 13:00:51;;;;;;;0.10;0.10;;;;;;;;;;5154093;27;20376;-64
2021/07/09 13:03:29;;;;;;;1.38;0.10;;;;;;;;;;5144723;27;20027;-64
2021/07/09 13:06:14;;;;;;;0.35;0.10;;;;;;;;;;5130949;27;20574;-63
2021/07/09 13:08:41;;;;;;;1.35;0.10;;;;;;;;;;5149132;27;20110;-65
2021/07/09 13:11:10;;;;;;;0.30;0.00;;;;;;;;;;5152474;27;20450;-65
2021/07/09 13:13:55;;;;;;;0.63;0.10;;;;;;;;;;5154714;27;20458;-65
2021/07/09 13:16:21;;;;;;;0.95;0.15;;;;;;;;;;5153538;27;20027;-65
2021/07/09 13:18:54;;;;;;;0.10;0.10;;;;;;;;;;5118706;27;20491;-65
2021/07/09 13:21:20;;;;;;;0.20;0.20;;;;;;;;;;5151827;27;20488;-65
2021/07/09 13:24:00;;;;;;;0.63;0.10;;;;;;;;;;5153268;27;20044;-65
2021/07/09 13:26:29;;;;;;;0.20;0.20;;;;;;;;;;5153581;27;20026;-65
2021/07/09 13:28:54;;;;;;;0.63;0.10;;;;;;;;;;5150553;27;20035;-65
2021/07/09 13:31:20;;;;;;;0.40;0.20;;;;;;;;;;5153024;27;20238;-65
2021/07/09 13:33:48;;;;;;;0.10;0.10;;;;;;;;;;5151153;27;20050;-65
2021/07/09 13:36:15;;;;;;;0.30;0.10;;;;;;;;;;5134663;27;20462;-65
2021/07/09 13:38:41;;;;;;;0.20;0.20;;;;;;;;;;5149849;27;20026;-65
2021/07/09 13:41:06;;;;;;;0.10;0.10;;;;;;;;;;5150364;27;20022;-65
2021/07/09 13:43:32;;;;;;;0.20;0.20;;;;;;;;;;5150843;27;20072;-65
2021/07/09 13:45:57;;;;;;;0.60;0.30;;;;;;;;;;5141274;27;20485;-65
2021/07/09 13:48:22;;;;;;;4.78;0.40;;;;;;;;;;5130272;27;20382;-65
2021/07/09 13:50:47;;;;;;;0.28;0.20;;;;;;;;;;5132309;27;20022;-65
2021/07/09 13:53:14;;;;;;;1.38;0.25;;;;;;;;;;5130509;27;20484;-64
2021/07/09 13:55:39;;;;;;;0.28;0.28;;;;;;;;;;5146750;27;20018;-64
2021/07/09 13:58:05;;;;;;;0.17;0.10;;;;;;;;;;5123662;27;20008;-64
2021/07/09 14:00:31;;;;;;;2.53;0.70;;;;;;;;;;5142176;27;20042;-64
2021/07/09 14:02:56;;;;;;;0.20;0.20;;;;;;;;;;5137102;27;20054;-64
2021/07/09 14:05:21;;;;;;;0.45;0.20;;;;;;;;;;5144123;27;20143;-64
2021/07/09 14:07:48;;;;;;;0.55;0.10;;;;;;;;;;5147660;27;20047;-63
2021/07/09 14:10:13;;;;;;;0.20;0.20;;;;;;;;;;5152677;27;20015;-63
2021/07/09 14:12:38;;;;;;;1.15;0.40;;;;;;;;;;5148633;27;20158;-63
2021/07/09 14:15:04;;;;;;;0.35;0.25;;;;;;;;;;5133887;27;20031;-64
2021/07/09 14:17:29;;;;;;;0.73;0.32;;;;;;;;;;5151342;27;20476;-64
2021/07/09 14:19:54;;;;;;;0.82;0.30;;;;;;;;;;5148899;27;20023;-64
2021/07/09 14:22:20;;;;;;;0.30;0.30;;;;;;;;;;5132963;27;20050;-63
2021/07/09 14:24:45;;;;;;;0.20;0.20;;;;;;;;;;5130589;27;20110;-63
2021/07/09 14:27:11;;;;;;;0.60;0.20;;;;;;;;;;5153604;27;20018;-63
2021/07/09 14:29:36;;;;;;;0.17;0.17;;;;;;;;;;5149817;27;20029;-62
2021/07/09 14:32:02;;;;;;;1.27;0.30;;;;;;;;;;5151894;27;20019;-62
2021/07/09 14:34:27;;;;;;;1.65;0.30;;;;;;;;;;5151128;27;20417;-63